Time;durP1;ratioP1;P1;durP2;ratioP2;P2;SDS_P1;SDS_P2;PMS_P1;PMS_P2;Temp;Humidity;BMP_temperature;BMP_pressure;BME280_temperature;BME280_humidity;BME280_pressure;Samples;Min_cycle;Max_cycle;Signal;HPM_P1;HPM_P2
2021/06/24 00:02:15;;;;;;;15.80;5.28;;;;;;;25.66;48.83;101078.72;5011934;28;20117;-65
2021/06/24 00:04:42;;;;;;;15.70;5.00;;;;;;;25.74;48.64;101079.25;5012000;28;20520;-64
2021/06/24 00:07:11;;;;;;;20.02;5.00;;;;;;;25.54;49.21;101079.19;5011170;28;20052;-64
2021/06/24 00:09:38;;;;;;;13.50;5.30;;;;;;;25.59;49.20;101071.81;5011024;28;20037;-65
2021/06/24 00:12:10;;;;;;;16.77;4.80;;;;;;;25.65;49.21;101058.91;5010592;28;20053;-64
2021/06/24 00:14:38;;;;;;;22.90;5.10;;;;;;;25.66;49.16;101059.78;5010319;28;20513;-64
2021/06/24 00:17:05;;;;;;;15.23;5.43;;;;;;;25.56;49.66;101069.19;5011250;28;20401;-64
2021/06/24 00:19:33;;;;;;;16.40;5.28;;;;;;;25.48;50.35;101061.38;5011304;28;20565;-64
2021/06/24 00:22:00;;;;;;;24.55;6.30;;;;;;;25.42;50.59;101058.94;5011747;28;20033;-65
2021/06/24 00:24:28;;;;;;;19.90;6.47;;;;;;;25.46;50.23;101054.31;5011702;28;20038;-64
2021/06/24 00:26:56;;;;;;;17.50;5.07;;;;;;;25.52;50.10;101059.44;5010944;28;20042;-64
2021/06/24 00:29:25;;;;;;;21.92;5.43;;;;;;;25.58;50.69;101046.59;5011619;28;20188;-64
2021/06/24 00:31:52;;;;;;;24.10;7.45;;;;;;;25.57;51.15;101052.03;5010577;28;20410;-64
2021/06/24 00:34:19;;;;;;;20.05;5.30;;;;;;;25.55;51.05;101051.19;5014447;28;20085;-65
2021/06/24 00:36:47;;;;;;;15.90;5.32;;;;;;;25.53;50.91;101055.81;5011178;28;20040;-65
2021/06/24 00:39:14;;;;;;;22.33;5.35;;;;;;;25.40;51.32;101053.59;5011107;28;20044;-64
2021/06/24 00:41:43;;;;;;;18.38;6.35;;;;;;;25.45;51.30;101047.13;5010596;28;20117;-65
2021/06/24 00:44:10;;;;;;;19.40;5.68;;;;;;;25.48;51.38;101038.88;5011100;28;20040;-65
2021/06/24 00:46:39;;;;;;;23.25;5.82;;;;;;;25.48;52.10;101038.88;5011252;28;20038;-64
2021/06/24 00:49:08;;;;;;;26.60;4.90;;;;;;;25.53;52.72;101034.19;5010790;28;20034;-64
2021/06/24 00:51:35;;;;;;;16.95;4.93;;;;;;;25.40;53.13;101031.97;5010991;28;20042;-65
2021/06/24 00:54:03;;;;;;;15.50;5.75;;;;;;;25.32;53.50;101033.25;5011059;28;20026;-64
2021/06/24 00:56:32;;;;;;;21.38;6.03;;;;;;;25.27;53.82;101025.28;5010544;28;20129;-64
2021/06/24 00:59:02;;;;;;;21.35;5.63;;;;;;;25.31;53.83;101028.75;5010257;28;20427;-64
2021/06/24 01:01:30;;;;;;;20.10;5.35;;;;;;;25.31;53.45;101032.34;5010074;28;20050;-65
2021/06/24 01:04:00;;;;;;;18.58;5.53;;;;;;;25.33;53.69;101030.47;5010975;28;20125;-64
2021/06/24 01:06:28;;;;;;;16.20;5.28;;;;;;;25.28;54.01;101026.19;5010683;28;20046;-64
2021/06/24 01:08:56;;;;;;;20.75;6.63;;;;;;;25.01;54.80;101015.53;5009229;28;20498;-64
2021/06/24 01:11:24;;;;;;;19.08;5.72;;;;;;;24.96;55.17;101020.25;5009796;28;20572;-64
2021/06/24 01:13:53;;;;;;;25.05;5.63;;;;;;;25.06;55.00;101017.19;5009976;28;20129;-64
2021/06/24 01:16:21;;;;;;;16.38;5.65;;;;;;;25.08;55.19;101018.88;5029108;28;20048;-64
2021/06/24 01:18:49;;;;;;;22.85;6.47;;;;;;;25.15;54.91;101014.97;5010350;28;20052;-64
2021/06/24 01:21:18;;;;;;;20.00;6.35;;;;;;;25.13;55.34;101011.50;5010435;28;20038;-64
2021/06/24 01:23:47;;;;;;;17.90;6.18;;;;;;;25.05;55.98;101019.00;5010326;28;20130;-64
2021/06/24 01:26:15;;;;;;;21.42;6.13;;;;;;;25.05;56.39;101004.63;5010484;28;20125;-64
2021/06/24 01:28:43;;;;;;;17.90;6.55;;;;;;;24.98;56.89;101001.28;5010415;28;20099;-64
2021/06/24 01:31:11;;;;;;;22.15;7.07;;;;;;;25.03;56.73;101004.69;5015733;28;20034;-64
2021/06/24 01:33:38;;;;;;;23.58;5.85;;;;;;;25.04;57.30;101001.03;5029604;28;20382;-65
2021/06/24 01:36:07;;;;;;;20.10;6.28;;;;;;;25.02;57.43;101008.31;5029720;28;20126;-64
2021/06/24 01:38:36;;;;;;;21.48;7.57;;;;;;;24.85;58.44;101013.50;5026457;28;20053;-65
2021/06/24 01:41:06;;;;;;;20.20;6.35;;;;;;;24.86;58.46;101007.16;5029333;28;20029;-64
2021/06/24 01:43:34;;;;;;;21.20;7.15;;;;;;;24.93;58.13;101015.00;5029375;28;20489;-64
2021/06/24 01:46:01;;;;;;;20.25;6.10;;;;;;;24.96;57.96;101009.44;5019978;28;20084;-65
2021/06/24 01:48:29;;;;;;;20.08;6.03;;;;;;;24.95;57.70;101012.19;5009961;28;20124;-65
2021/06/24 01:51:03;;;;;;;25.02;7.03;;;;;;;24.88;58.02;101018.75;5007944;28;20564;-64
2021/06/24 01:53:33;;;;;;;21.77;6.28;;;;;;;24.80;58.04;101012.78;5008360;28;20253;-64
2021/06/24 01:56:00;;;;;;;17.45;5.70;;;;;;;24.77;58.37;101024.59;5008543;28;20041;-64
2021/06/24 01:58:30;;;;;;;22.17;7.03;;;;;;;24.70;58.44;101023.06;5008269;28;20501;-65
2021/06/24 02:00:59;;;;;;;26.45;6.75;;;;;;;24.72;58.69;101023.00;5009123;28;20520;-64
2021/06/24 02:03:27;;;;;;;23.88;7.28;;;;;;;24.65;58.85;101022.34;5009506;28;20052;-64
2021/06/24 02:05:56;;;;;;;25.80;7.25;;;;;;;24.68;59.05;101024.06;5009245;28;20558;-64
2021/06/24 02:08:25;;;;;;;21.77;7.05;;;;;;;24.58;59.48;101018.13;5009977;28;20049;-65
2021/06/24 02:10:53;;;;;;;24.55;6.60;;;;;;;24.61;59.69;101020.72;5009486;28;20038;-64
2021/06/24 02:13:21;;;;;;;26.05;7.38;;;;;;;24.60;59.59;101025.25;5008764;28;20052;-64
2021/06/24 02:15:50;;;;;;;20.25;6.57;;;;;;;24.62;59.73;101015.25;5009766;28;20451;-64
2021/06/24 02:18:18;;;;;;;21.30;7.05;;;;;;;24.50;60.12;101014.84;5009577;28;20117;-64
2021/06/24 02:20:45;;;;;;;21.83;6.10;;;;;;;24.45;60.55;101014.13;5008927;28;20062;-64
2021/06/24 02:23:12;;;;;;;17.95;6.20;;;;;;;24.53;60.39;101018.31;5010025;28;20034;-65
2021/06/24 02:25:40;;;;;;;25.02;6.72;;;;;;;24.45;60.21;101006.91;5009132;28;20038;-65
2021/06/24 02:28:07;;;;;;;22.30;6.53;;;;;;;24.45;60.27;101011.44;5009083;28;20034;-64
2021/06/24 02:30:35;;;;;;;19.85;5.93;;;;;;;24.45;60.31;101006.03;5008950;28;20049;-64
2021/06/24 02:33:07;;;;;;;22.92;6.75;;;;;;;24.40;60.30;101006.22;5009324;28;20383;-64
2021/06/24 02:35:38;;;;;;;24.35;6.57;;;;;;;24.43;60.23;101011.47;5008164;28;20410;-64
2021/06/24 02:38:07;;;;;;;19.25;6.05;;;;;;;24.49;59.85;101005.84;5007555;28;20492;-64
2021/06/24 02:40:35;;;;;;;26.00;6.47;;;;;;;24.47;59.81;101005.06;5007269;28;20037;-64
2021/06/24 02:43:04;;;;;;;21.08;6.30;;;;;;;24.47;59.74;101013.16;5008702;28;20042;-65
2021/06/24 02:45:32;;;;;;;17.30;7.05;;;;;;;24.35;60.18;101012.72;5007512;28;20034;-64
2021/06/24 02:47:59;;;;;;;15.65;6.47;;;;;;;24.34;60.47;101006.44;5008456;28;20088;-65
2021/06/24 02:50:28;;;;;;;18.98;6.50;;;;;;;24.42;60.15;101008.84;5009102;28;20034;-64
2021/06/24 02:52:55;;;;;;;18.63;6.80;;;;;;;24.40;60.01;101018.84;5009458;28;20040;-64
2021/06/24 02:55:30;;;;;;;21.88;6.43;;;;;;;24.41;59.94;101015.19;5009346;28;20049;-65
2021/06/24 02:57:57;;;;;;;19.33;6.57;;;;;;;24.44;60.02;101021.34;5027803;28;20120;-65
2021/06/24 03:00:25;;;;;;;23.50;6.82;;;;;;;24.49;59.92;101018.47;5028804;28;20043;-65
2021/06/24 03:02:52;;;;;;;19.15;6.25;;;;;;;24.43;59.92;101024.09;5028977;28;20083;-64
2021/06/24 03:05:20;;;;;;;26.33;7.63;;;;;;;24.29;60.51;101031.81;5008773;28;20072;-64
2021/06/24 03:07:49;;;;;;;22.27;6.28;;;;;;;24.31;60.54;101024.56;5008720;28;20037;-64
2021/06/24 03:10:18;;;;;;;19.10;6.40;;;;;;;24.28;60.69;101039.06;5008222;28;20049;-65
2021/06/24 03:12:46;;;;;;;26.33;6.88;;;;;;;24.32;60.59;101035.31;5007618;28;20465;-64
2021/06/24 03:15:15;;;;;;;18.83;5.75;;;;;;;24.32;60.77;101039.81;5008345;28;20666;-64
2021/06/24 03:17:42;;;;;;;22.42;6.72;;;;;;;24.37;60.55;101045.91;5008520;28;20120;-64
2021/06/24 03:20:12;;;;;;;17.50;6.93;;;;;;;24.49;60.36;101043.66;5007971;28;20038;-64
2021/06/24 03:22:40;;;;;;;27.08;6.28;;;;;;;24.50;60.18;101048.13;5006919;28;20040;-64
2021/06/24 03:25:15;;;;;;;23.98;6.40;;;;;;;24.55;60.16;101046.13;5007692;28;20037;-64
2021/06/24 03:27:43;;;;;;;25.80;6.68;;;;;;;24.47;60.42;101045.53;5008128;28;20050;-63
2021/06/24 03:30:13;;;;;;;24.85;6.40;;;;;;;24.57;60.33;101041.56;5006802;28;20089;-65
2021/06/24 03:32:41;;;;;;;24.58;6.40;;;;;;;24.72;59.87;101044.59;5008825;28;20042;-64
2021/06/24 03:35:10;;;;;;;22.75;6.90;;;;;;;24.87;59.68;101036.81;5011950;28;20046;-64
2021/06/24 03:37:37;;;;;;;19.13;6.28;;;;;;;24.98;59.48;101039.13;5012437;28;20038;-64
2021/06/24 03:40:07;;;;;;;21.45;6.80;;;;;;;25.10;59.19;101038.63;5011896;28;20053;-64
2021/06/24 03:42:36;;;;;;;21.27;6.18;;;;;;;25.22;58.98;101042.66;5011859;28;20038;-64
2021/06/24 03:45:05;;;;;;;18.52;5.07;;;;;;;25.25;59.24;101029.91;5011847;28;20037;-65
2021/06/24 03:47:32;;;;;;;17.92;7.07;;;;;;;25.40;58.99;101036.50;5012433;28;20105;-65
2021/06/24 03:50:00;;;;;;;21.15;5.82;;;;;;;25.55;58.81;101035.84;5011418;28;20077;-64
2021/06/24 03:52:27;;;;;;;17.33;5.40;;;;;;;25.63;58.57;101035.56;5011821;28;20034;-65
2021/06/24 03:54:55;;;;;;;17.77;4.78;;;;;;;25.74;58.23;101036.88;5011946;28;20126;-64
2021/06/24 03:57:22;;;;;;;17.58;5.05;;;;;;;25.86;58.31;101040.00;5012257;28;20874;-65
2021/06/24 03:59:51;;;;;;;26.17;5.80;;;;;;;26.01;57.77;101029.38;5011899;28;20124;-64
2021/06/24 04:02:19;;;;;;;19.70;6.93;;;;;;;26.11;57.66;101040.69;5011751;28;20044;-64
2021/06/24 04:04:47;;;;;;;18.13;5.65;;;;;;;26.24;57.39;101041.94;5019933;28;20052;-64
2021/06/24 04:07:15;;;;;;;21.48;6.43;;;;;;;26.45;56.83;101053.63;5013704;28;20129;-64
2021/06/24 04:09:43;;;;;;;21.15;6.18;;;;;;;26.64;56.71;101057.25;5009969;28;20038;-64
2021/06/24 04:12:14;;;;;;;23.50;6.45;;;;;;;26.85;56.35;101053.53;5008789;28;20034;-64
2021/06/24 04:14:41;;;;;;;23.23;5.80;;;;;;;27.00;56.09;101065.50;5010700;28;20034;-64
2021/06/24 04:17:10;;;;;;;20.02;5.05;;;;;;;27.20;55.82;101060.03;5010958;28;20034;-64
2021/06/24 04:19:38;;;;;;;18.35;4.80;;;;;;;27.38;55.36;101060.94;5011137;28;20046;-64
2021/06/24 04:22:05;;;;;;;21.23;6.40;;;;;;;27.55;54.95;101066.47;5011600;28;20696;-65
2021/06/24 04:24:33;;;;;;;25.10;4.70;;;;;;;27.73;54.39;101062.81;5011662;28;20041;-64
2021/06/24 04:27:00;;;;;;;31.10;5.43;;;;;;;27.93;54.14;101058.19;5010724;28;20038;-65
2021/06/24 04:29:28;;;;;;;19.42;5.97;;;;;;;28.14;53.95;101057.13;5011526;28;20033;-64
2021/06/24 04:31:55;;;;;;;17.70;5.88;;;;;;;28.37;53.48;101061.31;5011384;28;20062;-64
2021/06/24 04:34:24;;;;;;;24.45;5.13;;;;;;;28.59;53.04;101056.50;5010131;28;20078;-65
2021/06/24 04:36:52;;;;;;;28.92;7.25;;;;;;;28.86;52.66;101051.41;5011319;28;20079;-64
2021/06/24 04:39:19;;;;;;;22.23;5.10;;;;;;;29.13;52.14;101049.00;5010844;28;20125;-64
2021/06/24 04:41:47;;;;;;;27.95;5.00;;;;;;;29.41;51.65;101051.00;5025406;28;20141;-65
2021/06/24 04:44:14;;;;;;;19.80;5.32;;;;;;;29.69;50.79;101043.00;5010576;28;20059;-65
2021/06/24 04:46:41;;;;;;;17.65;3.95;;;;;;;30.00;49.82;101036.59;5009511;28;20053;-65
2021/06/24 04:49:09;;;;;;;16.38;4.32;;;;;;;30.31;49.20;101043.78;5010930;28;20042;-64
2021/06/24 04:51:39;;;;;;;15.45;5.85;;;;;;;30.52;48.42;101039.78;5010992;28;20409;-64
2021/06/24 04:54:07;;;;;;;25.13;5.25;;;;;;;30.62;48.52;101040.03;5010540;28;20053;-64
2021/06/24 04:56:34;;;;;;;27.77;6.10;;;;;;;30.92;47.00;101056.31;5008850;28;20044;-65
2021/06/24 04:59:01;;;;;;;21.27;4.82;;;;;;;31.31;45.89;101050.13;5010723;28;20124;-65
2021/06/24 05:01:29;;;;;;;20.05;4.75;;;;;;;31.58;45.50;101048.28;5010225;28;20085;-65
2021/06/24 05:03:57;;;;;;;18.52;5.05;;;;;;;31.76;44.55;101044.34;5010603;28;20436;-65
2021/06/24 05:06:24;;;;;;;15.23;4.38;;;;;;;32.00;44.10;101042.66;5011180;28;20558;-64
2021/06/24 05:08:54;;;;;;;17.67;4.78;;;;;;;32.26;43.02;101040.00;5010327;28;20037;-64
2021/06/24 05:11:21;;;;;;;19.40;4.82;;;;;;;32.35;42.82;101044.81;5029206;28;20041;-65
2021/06/24 05:13:48;;;;;;;18.30;5.47;;;;;;;32.47;42.42;101040.31;5030171;28;20521;-65
2021/06/24 05:16:16;;;;;;;20.90;4.55;;;;;;;32.72;41.90;101030.28;5029932;28;20446;-65
2021/06/24 05:18:44;;;;;;;13.40;4.05;;;;;;;32.99;41.28;101024.66;5029721;28;20037;-65
2021/06/24 05:21:11;;;;;;;17.75;4.93;;;;;;;33.30;40.70;101027.88;5029924;28;20042;-66
2021/06/24 05:23:39;;;;;;;31.35;5.25;;;;;;;33.54;40.03;101024.13;5029933;28;20041;-65
2021/06/24 05:26:08;;;;;;;23.05;4.50;;;;;;;33.63;39.71;101022.56;5029996;28;20043;-65
2021/06/24 05:28:36;;;;;;;15.43;4.00;;;;;;;33.77;39.62;101030.63;5029564;28;20120;-65
2021/06/24 05:31:04;;;;;;;18.75;3.83;;;;;;;34.11;39.16;101028.00;5029974;28;20116;-65
2021/06/24 05:33:32;;;;;;;23.23;5.95;;;;;;;34.28;38.80;101022.09;5029161;28;20052;-65
2021/06/24 05:35:59;;;;;;;21.23;4.63;;;;;;;34.58;38.50;101030.63;5029246;28;20527;-65
2021/06/24 05:38:27;;;;;;;22.08;3.83;;;;;;;34.73;38.34;101036.75;5026164;28;20045;-65
2021/06/24 05:40:56;;;;;;;15.73;3.70;;;;;;;34.96;38.21;101040.38;5020823;28;20033;-65
2021/06/24 05:43:25;;;;;;;15.43;5.22;;;;;;;35.11;37.83;101030.88;5022114;28;20394;-65
2021/06/24 05:45:52;;;;;;;19.45;4.78;;;;;;;35.10;37.76;101034.63;5012082;28;20034;-65
2021/06/24 05:48:20;;;;;;;18.95;4.47;;;;;;;35.29;37.50;101036.75;5009069;28;20079;-65
2021/06/24 05:50:47;;;;;;;14.63;3.63;;;;;;;35.53;37.51;101037.41;5008570;28;20038;-65
2021/06/24 05:53:15;;;;;;;17.73;4.00;;;;;;;35.72;37.00;101029.38;5009357;28;20047;-65
2021/06/24 05:55:51;;;;;;;20.42;4.10;;;;;;;35.90;37.04;101041.56;5007636;28;20049;-65
2021/06/24 05:58:20;;;;;;;19.42;4.25;;;;;;;35.87;36.82;101043.69;4989748;28;20042;-65
2021/06/24 06:00:50;;;;;;;15.70;5.50;;;;;;;35.99;36.32;101036.25;5005394;28;20125;-65
2021/06/24 06:03:19;;;;;;;17.90;4.45;;;;;;;36.12;36.02;101040.56;5012335;28;20041;-66
2021/06/24 06:05:46;;;;;;;16.65;4.47;;;;;;;36.22;35.72;101037.94;5021372;28;20046;-65
2021/06/24 06:08:14;;;;;;;14.90;4.18;;;;;;;36.42;35.66;101037.06;5010040;28;20042;-65
2021/06/24 06:10:42;;;;;;;15.40;3.47;;;;;;;36.50;35.23;101036.34;5009325;28;20060;-65
2021/06/24 06:13:10;;;;;;;13.82;4.40;;;;;;;36.46;35.39;101030.25;5009759;28;20122;-66
2021/06/24 06:15:40;;;;;;;13.07;4.22;;;;;;;36.49;35.16;101023.63;5009083;28;20040;-65
2021/06/24 06:18:15;;;;;;;12.80;4.10;;;;;;;36.66;34.94;101025.75;5008922;28;20034;-65
2021/06/24 06:20:44;;;;;;;13.55;4.13;;;;;;;36.60;34.98;101027.16;5013376;28;20116;-65
2021/06/24 06:23:11;;;;;;;21.08;4.47;;;;;;;36.60;35.03;101015.25;5009115;28;20545;-65
2021/06/24 06:25:39;;;;;;;12.48;3.83;;;;;;;36.80;34.59;101017.13;5007829;28;20048;-66
2021/06/24 06:28:06;;;;;;;18.65;4.22;;;;;;;36.98;34.54;101011.81;5003539;28;20106;-65
2021/06/24 06:30:33;;;;;;;27.05;5.80;;;;;;;37.02;34.38;101027.91;5002131;28;20404;-66
2021/06/24 06:33:02;;;;;;;16.17;3.80;;;;;;;37.23;34.16;101027.00;5007408;28;20044;-65
2021/06/24 06:35:31;;;;;;;16.08;4.22;;;;;;;37.32;33.86;101021.53;5008679;28;20046;-65
2021/06/24 06:37:59;;;;;;;12.82;3.35;;;;;;;37.20;33.72;101021.78;5009276;28;20034;-65
2021/06/24 06:40:27;;;;;;;15.32;4.40;;;;;;;37.04;33.53;101023.16;5008913;28;20046;-65
2021/06/24 06:42:54;;;;;;;14.60;3.97;;;;;;;37.10;33.75;101028.09;5009142;28;20497;-65
2021/06/24 06:45:24;;;;;;;18.98;4.03;;;;;;;37.15;33.55;101026.84;5021896;28;20050;-65
2021/06/24 06:47:52;;;;;;;18.42;4.65;;;;;;;37.17;33.75;101030.31;5014206;28;20050;-65
2021/06/24 06:50:19;;;;;;;14.45;3.67;;;;;;;37.19;33.14;101033.81;5006896;28;20046;-65
2021/06/24 06:52:48;;;;;;;17.17;4.22;;;;;;;37.19;33.64;101029.19;5008003;28;20064;-66
2021/06/24 06:55:17;;;;;;;17.90;3.80;;;;;;;37.20;33.08;101032.81;5008508;28;20054;-65
2021/06/24 06:57:46;;;;;;;16.08;4.32;;;;;;;37.19;33.12;101037.44;5008960;28;20099;-65
2021/06/24 07:00:19;;;;;;;19.38;4.35;;;;;;;37.29;33.05;101034.69;5008237;28;20080;-65
2021/06/24 07:02:48;;;;;;;12.60;3.55;;;;;;;37.17;32.78;101031.19;5008231;28;20141;-65
2021/06/24 07:05:17;;;;;;;22.27;3.92;;;;;;;37.28;32.67;101031.09;5021211;28;20049;-64
2021/06/24 07:07:48;;;;;;;16.55;3.40;;;;;;;37.37;32.57;101029.34;5028193;28;20505;-64
2021/06/24 07:10:16;;;;;;;15.98;3.38;;;;;;;37.47;32.13;101024.75;5032321;28;20073;-66
2021/06/24 07:12:44;;;;;;;17.38;3.60;;;;;;;37.51;31.82;101031.69;5032041;28;20044;-65
2021/06/24 07:15:13;;;;;;;13.82;3.90;;;;;;;37.51;31.53;101028.94;5029152;28;20590;-64
2021/06/24 07:17:41;;;;;;;16.38;4.03;;;;;;;37.50;31.74;101036.34;5025816;28;20030;-64
2021/06/24 07:20:11;;;;;;;14.32;4.30;;;;;;;37.61;31.87;101023.47;5012610;28;20045;-64
2021/06/24 07:22:39;;;;;;;13.40;3.95;;;;;;;37.73;31.43;101028.72;5006744;28;20544;-64
2021/06/24 07:25:13;;;;;;;12.93;4.00;;;;;;;37.76;31.88;101028.41;5012728;28;20065;-64
2021/06/24 07:27:41;;;;;;;19.92;3.92;;;;;;;37.78;31.40;101040.16;5010237;28;20129;-65
2021/06/24 07:30:13;;;;;;;14.52;4.75;;;;;;;37.84;31.20;101030.44;5009576;28;20083;-64
2021/06/24 07:32:41;;;;;;;14.20;3.83;;;;;;;37.76;31.45;101030.28;5012684;28;20497;-65
2021/06/24 07:35:10;;;;;;;18.67;3.92;;;;;;;37.76;30.96;101027.53;4987511;28;20100;-65
2021/06/24 07:37:38;;;;;;;21.80;4.13;;;;;;;37.73;31.21;101023.19;5008767;28;20192;-65
2021/06/24 07:40:10;;;;;;;12.73;3.53;;;;;;;37.73;31.52;101027.84;5004608;28;20038;-66
2021/06/24 07:42:37;;;;;;;18.55;4.25;;;;;;;37.76;31.27;101027.53;4993352;28;20395;-65
2021/06/24 07:45:06;;;;;;;12.82;4.57;;;;;;;37.74;31.41;101021.31;5011416;28;20129;-65
2021/06/24 07:47:34;;;;;;;15.10;4.38;;;;;;;37.79;31.24;101027.25;5010136;28;20052;-65
2021/06/24 07:50:01;;;;;;;17.98;3.95;;;;;;;37.80;31.46;101034.53;5009682;28;20192;-65
2021/06/24 07:52:29;;;;;;;15.50;4.40;;;;;;;37.88;31.03;101035.50;5012876;28;20056;-64
2021/06/24 07:54:56;;;;;;;15.48;3.97;;;;;;;37.99;31.70;101039.16;5027425;28;20040;-66
2021/06/24 07:57:28;;;;;;;14.23;3.63;;;;;;;38.10;30.88;101039.91;5027201;28;20050;-65
2021/06/24 07:59:56;;;;;;;16.73;3.88;;;;;;;38.01;31.03;101039.88;5011625;28;20092;-65
2021/06/24 08:02:23;;;;;;;18.35;3.92;;;;;;;38.06;30.68;101041.22;5015211;28;20125;-65
2021/06/24 08:04:50;;;;;;;15.38;4.60;;;;;;;38.16;30.92;101050.34;5011332;28;20506;-65
2021/06/24 08:07:18;;;;;;;14.32;3.40;;;;;;;38.17;30.13;101042.94;5024641;28;20039;-65
2021/06/24 08:09:46;;;;;;;16.90;4.05;;;;;;;38.33;30.04;101051.50;5011368;28;20040;-65
2021/06/24 08:12:13;;;;;;;12.90;3.67;;;;;;;38.41;30.54;101050.72;5009690;28;20041;-65
2021/06/24 08:14:43;;;;;;;16.52;4.13;;;;;;;38.59;30.56;101046.22;5009475;28;20056;-65
2021/06/24 08:17:10;;;;;;;15.95;3.33;;;;;;;38.58;29.96;101047.25;5011005;28;20577;-65
2021/06/24 08:19:37;;;;;;;17.65;3.83;;;;;;;38.54;30.02;101043.91;5010216;28;20041;-65
2021/06/24 08:22:05;;;;;;;14.73;3.90;;;;;;;38.53;30.26;101042.16;5010950;28;20397;-65
2021/06/24 08:24:33;;;;;;;14.77;3.90;;;;;;;38.53;30.42;101057.88;5010524;28;20041;-65
2021/06/24 08:27:02;;;;;;;14.43;3.80;;;;;;;38.66;29.77;101041.84;5010521;28;20457;-64
2021/06/24 08:29:32;;;;;;;13.52;4.65;;;;;;;38.74;29.97;101044.69;5011353;28;20061;-65
2021/06/24 08:32:05;;;;;;;16.52;4.05;;;;;;;38.83;30.07;101049.31;5010981;28;20046;-65
2021/06/24 08:34:38;;;;;;;16.25;3.72;;;;;;;38.80;29.96;101054.25;5011261;28;20418;-64
2021/06/24 08:37:07;;;;;;;11.88;3.65;;;;;;;38.67;29.89;101061.00;5006162;28;20062;-65
2021/06/24 08:39:37;;;;;;;21.83;4.22;;;;;;;38.66;30.20;101063.94;5010476;28;20034;-65
2021/06/24 08:42:06;;;;;;;16.90;3.60;;;;;;;38.80;29.59;101062.53;5010856;28;20129;-65
2021/06/24 08:44:36;;;;;;;18.23;4.80;;;;;;;38.72;29.52;101066.09;5011164;28;20038;-65
2021/06/24 08:47:05;;;;;;;14.32;4.35;;;;;;;38.57;29.89;101073.09;5010328;28;20125;-65
2021/06/24 08:49:33;;;;;;;13.45;4.32;;;;;;;38.57;30.23;101075.88;5011116;28;20044;-65
2021/06/24 08:52:01;;;;;;;16.95;4.22;;;;;;;38.78;29.82;101075.66;5010561;28;20050;-65
2021/06/24 08:54:28;;;;;;;19.80;4.03;;;;;;;38.77;29.93;101074.78;5010897;28;20064;-65
2021/06/24 08:56:56;;;;;;;20.92;4.85;;;;;;;38.90;29.82;101071.69;5008825;28;20047;-65
2021/06/24 08:59:23;;;;;;;15.70;4.75;;;;;;;39.12;29.09;101074.09;5016698;28;20185;-66
2021/06/24 09:01:52;;;;;;;16.15;4.68;;;;;;;38.83;28.50;101068.66;5004465;28;20048;-65
2021/06/24 09:04:23;;;;;;;17.25;3.67;;;;;;;38.80;28.34;101068.94;5000526;28;20070;-67
2021/06/24 09:06:52;;;;;;;11.95;3.50;;;;;;;38.71;28.93;101082.81;5001375;28;20034;-65
2021/06/24 09:09:27;;;;;;;14.10;3.75;;;;;;;38.80;28.65;101076.34;5001741;28;20046;-65
2021/06/24 09:12:06;;;;;;;12.75;3.95;;;;;;;38.89;28.54;101076.34;5009104;28;20038;-65
2021/06/24 09:14:45;;;;;;;15.93;3.92;;;;;;;38.83;28.32;101079.69;5025491;28;20034;-64
2021/06/24 09:17:14;;;;;;;11.70;3.47;;;;;;;38.88;28.51;101090.28;5030233;28;20040;-65
2021/06/24 09:19:43;;;;;;;16.98;3.35;;;;;;;38.90;28.59;101086.38;5030195;28;20050;-65
2021/06/24 09:22:13;;;;;;;15.82;3.78;;;;;;;38.96;28.56;101087.69;5015850;28;20510;-65
2021/06/24 09:24:43;;;;;;;15.02;3.80;;;;;;;39.12;28.15;101085.16;5010111;28;20138;-65
2021/06/24 09:27:27;;;;;;;17.33;4.22;;;;;;;38.98;28.77;101091.16;5008237;28;20093;-65
2021/06/24 09:30:05;;;;;;;15.30;3.53;;;;;;;39.01;28.56;101082.56;5019167;28;20091;-65
2021/06/24 09:32:35;;;;;;;14.60;4.35;;;;;;;39.01;29.28;101082.56;5005754;28;20132;-65
2021/06/24 09:35:08;;;;;;;11.80;3.70;;;;;;;39.17;28.97;101085.56;5025623;28;20038;-64
2021/06/24 09:38:02;;;;;;;13.15;3.30;;;;;;;39.38;28.89;101094.50;5015821;28;20037;-64
2021/06/24 09:40:40;;;;;;;14.23;3.50;;;;;;;39.51;28.86;101090.50;5001119;28;20079;-65
2021/06/24 09:43:09;;;;;;;16.83;3.30;;;;;;;39.09;28.95;101085.44;4997734;28;20420;-65
2021/06/24 09:45:38;;;;;;;13.10;3.65;;;;;;;39.12;28.31;101081.53;4999198;28;20113;-65
2021/06/24 09:48:10;;;;;;;12.52;3.47;;;;;;;38.71;28.62;101082.81;5001073;28;20132;-65
2021/06/24 09:50:39;;;;;;;10.68;3.80;;;;;;;38.67;28.33;101085.84;4997433;28;20124;-65
2021/06/24 09:53:11;;;;;;;14.32;3.97;;;;;;;38.54;28.50;101077.03;4999642;28;20585;-64
2021/06/24 09:55:40;;;;;;;13.32;3.38;;;;;;;38.41;28.75;101075.56;4998812;28;20049;-65
2021/06/24 09:58:15;;;;;;;11.95;3.70;;;;;;;38.50;29.10;101077.47;5002597;28;20516;-65
2021/06/24 10:00:52;;;;;;;15.18;4.25;;;;;;;38.68;29.09;101079.31;5003910;28;20168;-65
2021/06/24 10:03:21;;;;;;;13.07;4.28;;;;;;;38.87;29.03;101074.72;5002034;28;20046;-65
2021/06/24 10:05:50;;;;;;;13.80;3.53;;;;;;;38.93;29.28;101063.09;5005217;28;20026;-65
2021/06/24 10:08:18;;;;;;;11.88;3.65;;;;;;;38.60;29.35;101068.13;4982744;28;20052;-65
2021/06/24 10:10:46;;;;;;;12.77;4.25;;;;;;;38.66;29.70;101062.00;4999026;28;20657;-65
2021/06/24 10:13:13;;;;;;;13.73;4.00;;;;;;;38.76;29.59;101072.16;4998178;28;20053;-67
2021/06/24 10:15:41;;;;;;;14.15;4.65;;;;;;;38.67;29.75;101063.75;4999411;28;20072;-65
2021/06/24 10:18:09;;;;;;;18.52;4.30;;;;;;;38.65;29.53;101062.19;5000884;28;20058;-65
2021/06/24 10:20:42;;;;;;;14.23;3.67;;;;;;;38.63;29.23;101073.38;5004838;28;20494;-65
2021/06/24 10:23:16;;;;;;;11.73;3.47;;;;;;;38.57;28.71;101062.06;4999833;28;20103;-66
2021/06/24 10:25:49;;;;;;;18.60;4.40;;;;;;;38.25;29.18;101070.66;4999051;28;20558;-65
2021/06/24 10:28:18;;;;;;;12.13;4.18;;;;;;;38.22;29.83;101062.66;5000373;28;20061;-65
2021/06/24 10:30:46;;;;;;;13.02;3.42;;;;;;;38.12;29.74;101056.31;4999672;28;20129;-65
2021/06/24 10:33:16;;;;;;;16.23;5.05;;;;;;;38.03;29.70;101058.03;5000047;28;20556;-64
2021/06/24 10:35:47;;;;;;;16.45;4.20;;;;;;;38.10;30.05;101056.44;4999867;28;20046;-65
2021/06/24 10:38:17;;;;;;;15.35;4.25;;;;;;;38.13;30.10;101053.41;4999543;28;20073;-65
2021/06/24 10:40:46;;;;;;;11.82;4.40;;;;;;;38.04;30.51;101050.63;4999577;28;20523;-65
2021/06/24 10:43:17;;;;;;;19.15;4.55;;;;;;;38.20;30.32;101051.78;4999876;28;20060;-65
2021/06/24 10:45:46;;;;;;;13.18;4.28;;;;;;;38.27;30.05;101055.69;5004037;28;20037;-65
2021/06/24 10:48:28;;;;;;;16.35;4.07;;;;;;;38.33;30.01;101048.72;5003590;28;20045;-66
2021/06/24 10:51:01;;;;;;;13.38;4.00;;;;;;;38.33;29.42;101043.22;5002984;28;20076;-66
2021/06/24 10:53:55;;;;;;;13.32;3.83;;;;;;;38.21;29.34;101044.38;5003723;28;20045;-66
2021/06/24 10:56:44;;;;;;;13.23;3.90;;;;;;;38.30;28.91;101040.72;5004023;28;20065;-66
2021/06/24 10:59:33;;;;;;;16.13;4.82;;;;;;;38.59;28.51;101033.28;5022709;28;20057;-66
2021/06/24 11:02:23;;;;;;;15.27;3.90;;;;;;;38.62;28.29;101032.97;5021525;28;20041;-66
2021/06/24 11:04:51;;;;;;;13.45;4.35;;;;;;;38.53;27.98;101033.88;5011837;28;20492;-66
2021/06/24 11:07:24;;;;;;;18.30;4.30;;;;;;;38.68;28.16;101025.97;5022903;28;20123;-66
2021/06/24 11:10:33;;;;;;;19.20;5.30;;;;;;;38.91;28.34;101037.53;5022443;28;20041;-66
2021/06/24 11:13:04;;;;;;;13.32;3.70;;;;;;;39.12;28.44;101040.06;5008574;28;20065;-66
2021/06/24 11:15:46;;;;;;;18.83;4.68;;;;;;;39.16;28.26;101034.06;5002958;28;20069;-66
2021/06/24 11:18:57;;;;;;;15.57;4.25;;;;;;;39.17;28.02;101027.53;5003293;28;20070;-66
2021/06/24 11:21:54;;;;;;;18.90;5.25;;;;;;;39.49;27.88;101028.94;4985841;28;20056;-66
2021/06/24 11:24:31;;;;;;;17.23;4.18;;;;;;;39.64;27.33;101021.84;5022478;28;20042;-66
2021/06/24 11:27:02;;;;;;;20.73;4.82;;;;;;;39.69;27.19;101023.13;5006516;28;20413;-66
2021/06/24 11:32:29;;;;;;;18.23;4.57;;;;;;;40.09;26.64;101019.88;5005971;28;20076;-66